createdAt,value
2018-07-03T06:53:06.900Z,1.2
2018-07-03T06:53:23.335Z,2
2018-07-03T06:53:39.776Z,2
2018-07-03T06:54:42.235Z,8.6
2018-07-03T06:54:58.946Z,9.3
2018-07-03T06:55:16.931Z,10.1
2018-07-03T06:56:05.038Z,12.8
2018-07-03T06:56:22.494Z,11.8
2018-07-03T06:56:48.125Z,8.7
2018-07-03T06:57:04.872Z,9.5
2018-07-03T06:57:21.590Z,21.799999
2018-07-03T06:57:39.660Z,29.299999
2018-07-03T06:57:56.476Z,39.299999
2018-07-03T06:58:14.007Z,36.700001
2018-07-03T06:58:30.689Z,24.700001
2018-07-03T06:58:48.393Z,23
2018-07-03T06:59:04.989Z,25.200001
2018-07-03T06:59:21.699Z,25.799999
2018-07-03T06:59:38.338Z,27.700001
2018-07-03T06:59:55.011Z,26.9
2018-07-03T07:00:11.624Z,24.299999
2018-07-03T07:00:28.190Z,15.9
2018-07-03T07:00:44.818Z,12.3
2018-07-03T07:01:01.562Z,7.8
2018-07-03T07:01:18.118Z,4.4
2018-07-03T07:01:34.616Z,6.4
2018-07-03T07:01:51.111Z,7.9
2018-07-03T07:02:07.674Z,7.5
2018-07-03T07:02:24.298Z,6.5
2018-07-03T07:02:41.060Z,6.7
2018-07-03T07:02:57.708Z,5.4
2018-07-03T07:03:14.424Z,3.9
2018-07-03T07:03:30.968Z,5.6
2018-07-03T07:03:47.494Z,5.1
2018-07-03T07:04:04.077Z,4
2018-07-03T07:04:20.621Z,5.4
2018-07-03T07:04:37.184Z,4.7
2018-07-03T07:04:53.737Z,5
2018-07-03T07:05:10.417Z,3.3
2018-07-03T07:05:27.115Z,2.7
2018-07-03T07:05:43.681Z,3.8
2018-07-03T07:06:00.255Z,4.8
2018-07-03T07:06:16.775Z,3.9
2018-07-03T07:06:33.400Z,2.8
2018-07-03T07:06:50.033Z,2.7
2018-07-03T07:07:06.550Z,4.4
2018-07-03T07:07:23.061Z,4.4
2018-07-03T07:07:39.546Z,3.4
2018-07-03T07:07:56.058Z,3.2
2018-07-03T07:08:12.710Z,1.9
2018-07-03T07:08:29.268Z,2.4
2018-07-03T07:08:45.925Z,3.5
2018-07-03T07:09:02.440Z,2.5
2018-07-03T07:09:18.966Z,2.9
2018-07-03T07:09:35.786Z,3.9
2018-07-03T07:10:01.794Z,3.3
2018-07-03T07:10:18.288Z,2.5
2018-07-03T07:10:35.047Z,3.1
2018-07-03T07:10:51.675Z,2.8
2018-07-03T07:11:08.411Z,4.4
2018-07-03T07:11:25.122Z,4.2
2018-07-03T07:11:41.682Z,2.2
2018-07-03T07:11:58.191Z,3.4
2018-07-03T07:12:14.733Z,3.7
2018-07-03T07:12:31.291Z,2.7
2018-07-03T07:12:47.908Z,3.1
2018-07-03T07:13:04.491Z,2.1
2018-07-03T07:13:21.006Z,1.8
2018-07-03T07:13:37.489Z,2.7
2018-07-03T07:13:54.253Z,3.3
2018-07-03T07:14:10.796Z,2.7
2018-07-03T07:14:27.481Z,2.5
2018-07-03T07:14:43.971Z,3.1
2018-07-03T07:15:00.521Z,2.8
2018-07-03T07:15:16.991Z,3.1
2018-07-03T07:15:33.605Z,4.1
2018-07-03T07:15:50.260Z,3.7
2018-07-03T07:16:06.800Z,3.1
2018-07-03T07:16:23.488Z,3.8
2018-07-03T07:16:39.970Z,2.6
2018-07-03T07:16:56.488Z,5.2
2018-07-03T07:17:13.019Z,4.3
2018-07-03T07:17:29.716Z,2
2018-07-03T07:17:46.283Z,1.9
2018-07-03T07:18:02.917Z,3.1
2018-07-03T07:18:19.545Z,4.3
2018-07-03T07:18:36.121Z,4.6
2018-07-03T07:18:53.543Z,4.5
2018-07-03T07:19:10.966Z,3.2
2018-07-03T07:20:02.218Z,3.4
2018-07-03T07:20:19.055Z,1.9
2018-07-03T07:20:36.526Z,3.6
2018-07-03T07:20:54.220Z,3
2018-07-03T07:21:11.237Z,2.6
2018-07-03T07:21:28.335Z,3.3
2018-07-03T07:21:45.424Z,5.1
2018-07-03T07:22:04.014Z,3.4
2018-07-03T07:22:20.815Z,2.9
2018-07-03T07:24:50.684Z,5.7
2018-07-03T07:25:07.269Z,5.4
2018-07-03T07:25:23.824Z,4.9
2018-07-03T07:25:41.466Z,4.1
2018-07-03T07:25:57.979Z,2.4
2018-07-03T07:26:14.509Z,2.7
2018-07-03T07:26:31.730Z,4
2018-07-03T07:26:48.362Z,4.5
2018-07-03T07:27:04.833Z,3.9
2018-07-03T07:27:21.326Z,4.1
2018-07-03T07:27:37.960Z,5.1
2018-07-03T07:27:54.532Z,3.6
2018-07-03T07:28:11.118Z,3.8
2018-07-03T07:28:27.715Z,4.2
2018-07-03T07:28:44.214Z,4.1
2018-07-03T07:29:01.108Z,2.7
2018-07-03T07:29:17.648Z,4.2
2018-07-03T07:29:34.161Z,4.4
2018-07-03T07:29:50.636Z,2.8
2018-07-03T07:30:07.211Z,3.1
2018-07-03T07:30:23.693Z,2.8
2018-07-03T07:30:40.433Z,3.5
2018-07-03T07:30:57.120Z,4.2
2018-07-03T07:31:13.630Z,3.7
2018-07-03T07:31:30.145Z,4.4
2018-07-03T07:31:46.660Z,4
2018-07-03T07:32:03.192Z,4.3
2018-07-03T07:32:19.761Z,5.9
2018-07-03T07:32:36.444Z,4.5
2018-07-03T07:32:52.978Z,3.2
2018-07-03T07:33:09.713Z,3.6
2018-07-03T07:33:26.245Z,4.4
2018-07-03T07:33:42.879Z,3.7
2018-07-03T07:33:59.399Z,3.9
2018-07-03T07:34:27.402Z,3.1
2018-07-03T07:34:43.908Z,4.6
2018-07-03T07:35:00.691Z,5.1
2018-07-03T07:35:17.474Z,6.3
2018-07-03T07:35:34.405Z,7.8
2018-07-03T07:35:50.928Z,8.3
2018-07-03T07:36:07.691Z,7.3
2018-07-03T07:36:24.214Z,6.1
2018-07-03T07:36:40.802Z,5.7
2018-07-03T07:36:57.285Z,5.9
2018-07-03T07:37:13.795Z,8.2
2018-07-03T07:37:30.424Z,9.1
2018-07-03T07:37:46.924Z,10.7
2018-07-03T07:38:03.408Z,12
2018-07-03T07:38:20.103Z,9.4
2018-07-03T07:38:36.588Z,8.6
2018-07-03T07:38:53.102Z,6.9
2018-07-03T07:39:09.629Z,5.9
2018-07-03T07:39:26.178Z,7.5
2018-07-03T07:39:42.736Z,6.1
2018-07-03T07:39:59.250Z,4.9
2018-07-03T07:40:15.829Z,6
2018-07-03T07:40:32.388Z,7
2018-07-03T07:40:48.936Z,10.9
2018-07-03T07:41:05.478Z,5.9
2018-07-03T07:41:22.029Z,4.8
2018-07-03T07:41:38.559Z,2.9
2018-07-03T07:41:55.066Z,2.6
2018-07-03T07:42:11.617Z,3
2018-07-03T07:42:28.159Z,3.5
2018-07-03T07:42:44.749Z,3.1
2018-07-03T07:43:09.261Z,3.7
2018-07-03T07:43:25.833Z,3.9
2018-07-03T07:43:42.313Z,2.5
2018-07-03T07:43:58.900Z,3
2018-07-03T07:44:15.399Z,3.4
2018-07-03T07:44:31.924Z,4.2
2018-07-03T07:44:48.443Z,4.4
2018-07-03T07:45:05.020Z,3.2
2018-07-03T07:45:21.543Z,4
2018-07-03T07:45:38.090Z,3.3
2018-07-03T07:45:54.628Z,3.2
2018-07-03T07:46:11.229Z,5.3
2018-07-03T07:46:44.236Z,4.7
2018-07-03T07:47:00.760Z,4.7
2018-07-03T07:47:17.365Z,3.2
2018-07-03T07:47:33.968Z,3.6
2018-07-03T07:47:50.524Z,4.2
2018-07-03T07:48:07.045Z,5.4
2018-07-03T07:48:23.799Z,5.5
2018-07-03T07:48:40.371Z,3.7
2018-07-03T07:48:56.905Z,3.8
2018-07-03T07:49:13.407Z,3.3
2018-07-03T07:49:29.945Z,4.5
2018-07-03T07:49:46.469Z,5.6
2018-07-03T07:50:03.066Z,5.6
2018-07-03T07:50:19.581Z,4.2
2018-07-03T07:50:36.084Z,3.2
2018-07-03T07:50:53.580Z,5
2018-07-03T07:51:10.170Z,6.5
2018-07-03T07:51:26.659Z,7.7
2018-07-03T07:51:43.165Z,6.9
2018-07-03T07:51:59.656Z,5.8
2018-07-03T07:52:16.148Z,4.6
2018-07-03T07:52:32.656Z,8.8
2018-07-03T07:52:49.165Z,11.1
2018-07-03T07:53:05.636Z,11.4
2018-07-03T07:53:22.204Z,10.2
2018-07-03T07:53:38.746Z,7.2
2018-07-03T07:53:55.417Z,7
2018-07-03T07:54:11.905Z,6
2018-07-03T07:54:28.451Z,3.9
2018-07-03T07:54:44.995Z,5.6
2018-07-03T07:55:01.476Z,5.2
2018-07-03T07:55:18.020Z,8.8
2018-07-03T07:55:34.536Z,7.6
2018-07-03T07:55:51.039Z,3.7
2018-07-03T07:56:07.554Z,4
2018-07-03T07:56:24.135Z,4.5
2018-07-03T07:56:41.619Z,4.3
2018-07-03T07:56:58.112Z,4.3
2018-07-03T07:57:14.755Z,5.1
2018-07-03T07:57:31.241Z,6.2
2018-07-03T07:57:47.768Z,6.6
2018-07-03T07:58:04.329Z,5
2018-07-03T07:58:20.831Z,3
2018-07-03T07:58:37.379Z,2.8
2018-07-03T07:58:53.964Z,3.6
2018-07-03T07:59:10.483Z,4.2
2018-07-03T08:00:41.849Z,5.5
2018-07-03T08:00:58.395Z,6.1
2018-07-03T08:01:14.903Z,7.1
2018-07-03T08:01:31.469Z,5.2
2018-07-03T08:01:47.955Z,3.3
2018-07-03T08:02:04.485Z,3.2
2018-07-03T08:02:21.009Z,2.7
2018-07-03T08:02:37.553Z,3.3
2018-07-03T08:02:54.200Z,3.9
2018-07-03T08:03:13.102Z,3.1
2018-07-03T08:03:30.331Z,2.5
2018-07-03T08:03:46.877Z,3
2018-07-03T08:04:03.418Z,2.4
2018-07-03T08:04:20.150Z,2.7
2018-07-03T08:04:36.729Z,5.2
2018-07-03T08:04:53.334Z,4.3
2018-07-03T08:05:09.849Z,4.2
2018-07-03T08:05:26.446Z,5.4
2018-07-03T08:05:42.979Z,4.1
2018-07-03T08:05:59.495Z,3.1
2018-07-03T08:06:16.004Z,4.8
2018-07-03T08:06:32.459Z,3.7
2018-07-03T08:06:49.133Z,3.5
2018-07-03T08:07:05.565Z,4
2018-07-03T08:07:22.082Z,3.8
2018-07-03T08:07:38.611Z,3.9
2018-07-03T08:07:55.124Z,3.5
2018-07-03T08:08:11.689Z,2.2
2018-07-03T08:08:28.340Z,2.7
2018-07-03T08:08:44.849Z,2.9
2018-07-03T08:09:01.369Z,2.9
2018-07-03T08:09:17.883Z,2.8
2018-07-03T08:09:34.420Z,3
2018-07-03T08:09:50.947Z,4
2018-07-03T08:10:07.507Z,4.8
2018-07-03T08:10:24.049Z,4.3
2018-07-03T08:10:40.553Z,3.7
2018-07-03T08:10:57.064Z,4.4
2018-07-03T08:11:13.652Z,5.9
2018-07-03T08:11:30.192Z,7.7
2018-07-03T08:11:47.149Z,7.5
2018-07-03T08:12:03.706Z,8.1
2018-07-03T08:12:20.240Z,8.7
2018-07-03T08:12:36.718Z,9.3
2018-07-03T08:12:53.256Z,7.9
2018-07-03T08:13:09.738Z,8.5
2018-07-03T08:13:26.307Z,7.6
2018-07-03T08:13:42.786Z,7.5
2018-07-03T08:13:59.301Z,9.5
2018-07-03T08:14:15.790Z,9.9
2018-07-03T08:14:32.324Z,10.1
2018-07-03T08:14:48.922Z,6
2018-07-03T08:15:05.430Z,5.7
2018-07-03T08:15:21.886Z,6
2018-07-03T08:15:46.228Z,4
2018-07-03T08:16:11.659Z,4.1
2018-07-03T08:16:28.223Z,5.2
2018-07-03T08:16:44.729Z,4.5
2018-07-03T08:17:01.261Z,5
2018-07-03T08:17:17.752Z,3.9
2018-07-03T08:17:34.760Z,5.6
2018-07-03T08:17:51.675Z,6
2018-07-03T08:18:08.276Z,5.2
2018-07-03T08:18:24.749Z,4.4
2018-07-03T08:18:41.380Z,3.9
2018-07-03T08:18:57.917Z,4.8
2018-07-03T08:19:14.463Z,5.3
2018-07-03T08:19:30.945Z,3.7
2018-07-03T08:19:47.522Z,3.5
2018-07-03T08:20:04.133Z,3.7
2018-07-03T08:20:20.661Z,2.8
2018-07-03T08:20:37.221Z,2.4
2018-07-03T08:20:53.777Z,2.7
2018-07-03T08:21:10.318Z,4.1
2018-07-03T08:21:26.841Z,3.5
2018-07-03T08:21:43.366Z,4.7
2018-07-03T08:22:00.083Z,4.1
2018-07-03T08:22:16.569Z,3.6
2018-07-03T08:22:33.081Z,3
2018-07-03T08:22:49.574Z,6.6
2018-07-03T08:23:06.058Z,7.4
2018-07-03T08:23:22.553Z,6.2
2018-07-03T08:23:39.073Z,7.2
2018-07-03T08:23:55.596Z,5.8
2018-07-03T08:24:12.104Z,5.3
2018-07-03T08:24:28.627Z,5.2
2018-07-03T08:24:45.173Z,4.2
2018-07-03T08:25:01.678Z,4.4
2018-07-03T08:25:18.166Z,3.8
2018-07-03T08:25:34.704Z,4.9
2018-07-03T08:25:51.194Z,4.6
2018-07-03T08:26:07.740Z,4.6
2018-07-03T08:26:24.253Z,4.8
2018-07-03T08:26:40.822Z,4.1
2018-07-03T08:26:57.282Z,4.4
2018-07-03T08:27:13.752Z,3.7
2018-07-03T08:27:30.325Z,2.7
2018-07-03T08:27:46.897Z,2.3
2018-07-03T08:28:03.496Z,3.2
2018-07-03T08:28:20.003Z,4.1
2018-07-03T08:28:36.589Z,2.5
2018-07-03T08:28:53.085Z,2.4
2018-07-03T08:29:09.597Z,4.1
2018-07-03T08:29:26.057Z,3.1
2018-07-03T08:29:42.559Z,2.1
2018-07-03T08:29:59.092Z,2.8
2018-07-03T08:30:15.604Z,5.4
2018-07-03T08:30:33.143Z,4.5
2018-07-03T08:30:49.629Z,3.6
2018-07-03T08:31:06.110Z,4.7
2018-07-03T08:31:22.607Z,4.2
2018-07-03T08:31:39.117Z,3.5
2018-07-03T08:31:55.707Z,3.8
2018-07-03T08:32:12.588Z,4.9
2018-07-03T08:32:29.780Z,3.2
2018-07-03T08:32:46.270Z,2.2
2018-07-03T08:33:02.892Z,4.3
2018-07-03T08:33:19.454Z,4.1
2018-07-03T08:33:35.959Z,4
2018-07-03T08:33:52.505Z,3.4
2018-07-03T08:34:08.993Z,2.7
2018-07-03T08:34:25.527Z,1.7
2018-07-03T08:34:42.009Z,2.6
2018-07-03T08:34:58.628Z,2.1
2018-07-03T08:35:15.198Z,2.1
2018-07-03T08:35:31.670Z,2.3
2018-07-03T08:35:48.346Z,3.8
2018-07-03T08:36:04.892Z,3.9
2018-07-03T08:36:21.386Z,3
2018-07-03T08:36:37.969Z,3.2
2018-07-03T08:36:54.485Z,3.6
2018-07-03T08:37:11.137Z,3.9
2018-07-03T08:37:27.741Z,3.6
2018-07-03T08:37:44.296Z,3.3
2018-07-03T08:38:00.759Z,2.8
2018-07-03T08:38:17.405Z,2.3
2018-07-03T08:38:33.918Z,2.7
2018-07-03T08:38:50.417Z,2.6
2018-07-03T08:39:06.910Z,1.7
2018-07-03T08:39:23.421Z,4.4
2018-07-03T08:39:39.988Z,5.1
2018-07-03T08:39:56.522Z,3.9
2018-07-03T08:40:13.123Z,3.6
2018-07-03T08:40:29.594Z,3.5
2018-07-03T08:40:46.500Z,3.7
2018-07-03T08:41:02.994Z,4.3
2018-07-03T08:41:19.521Z,2.4
2018-07-03T08:41:36.180Z,2.4
2018-07-03T08:41:52.643Z,3.8
2018-07-03T08:42:09.167Z,4.4
2018-07-03T08:42:25.736Z,2.6
2018-07-03T08:42:42.174Z,1.9
2018-07-03T08:42:58.764Z,1.8
2018-07-03T08:43:23.231Z,3
2018-07-03T08:43:39.723Z,4.2
2018-07-03T08:43:56.331Z,3.1
2018-07-03T08:44:13.734Z,3.9
2018-07-03T08:44:30.258Z,3.4
2018-07-03T08:44:46.776Z,2.4
2018-07-03T08:45:03.238Z,2.2
2018-07-03T08:45:19.737Z,2.2
2018-07-03T08:45:36.413Z,2.4
2018-07-03T08:45:53.082Z,2.3
2018-07-03T08:46:09.588Z,1.9
2018-07-03T08:46:26.139Z,2.4
2018-07-03T08:46:42.687Z,3.5
2018-07-03T08:46:59.160Z,3.3
2018-07-03T08:47:15.619Z,3.3
2018-07-03T08:47:32.134Z,2.3
2018-07-03T08:47:48.701Z,2.4
2018-07-03T08:48:05.225Z,4.2
2018-07-03T08:48:21.702Z,3.9
2018-07-03T08:48:46.416Z,2.8
2018-07-03T08:49:10.822Z,3.3
2018-07-03T08:49:27.319Z,2.9
2018-07-03T08:49:43.830Z,2.9
2018-07-03T08:50:00.356Z,2.2
2018-07-03T08:50:17.871Z,3.7
2018-07-03T08:50:34.372Z,3.4
2018-07-03T08:50:50.927Z,3.3
2018-07-03T08:51:09.039Z,3.5
2018-07-03T08:51:25.518Z,2.5
2018-07-03T08:51:50.095Z,2.8
2018-07-03T08:52:06.546Z,2.4
2018-07-03T08:52:23.124Z,2.7
2018-07-03T08:52:39.628Z,3.1
2018-07-03T08:52:56.419Z,2.4
2018-07-03T08:53:12.921Z,2.2
2018-07-03T08:53:29.477Z,2.6
2018-07-03T08:53:45.990Z,3
2018-07-03T08:54:10.416Z,3.1
2018-07-03T08:54:26.922Z,2.1
2018-07-03T08:54:43.521Z,2.9
2018-07-03T08:55:00.089Z,2.9
2018-07-03T08:55:16.584Z,2.8
2018-07-03T08:55:33.074Z,2.4
2018-07-03T08:55:49.606Z,3.1
2018-07-03T08:56:06.134Z,3.5
2018-07-03T08:56:22.689Z,5.2
2018-07-03T08:56:39.336Z,5.4
2018-07-03T08:56:55.824Z,3.6
2018-07-03T08:57:12.360Z,2.6
2018-07-03T08:57:28.840Z,3.1
2018-07-03T08:57:45.440Z,2.8
2018-07-03T08:58:01.938Z,2.5
2018-07-03T08:58:18.525Z,2.9
2018-07-03T08:58:34.990Z,4.2
2018-07-03T08:58:51.563Z,4.1
2018-07-03T08:59:08.044Z,3.7
2018-07-03T08:59:24.595Z,2.3
2018-07-03T08:59:41.086Z,1.5
2018-07-03T08:59:57.623Z,2.7
2018-07-03T09:00:14.209Z,3
2018-07-03T09:00:30.707Z,1.9
2018-07-03T09:00:47.274Z,3.2
2018-07-03T09:01:03.728Z,4
2018-07-03T09:01:20.250Z,3.9
2018-07-03T09:01:36.749Z,3.2
2018-07-03T09:01:53.304Z,3.1
2018-07-03T09:02:09.893Z,3.4
2018-07-03T09:02:26.406Z,3
2018-07-03T09:02:42.896Z,3.1
2018-07-03T09:02:59.383Z,2.9
2018-07-03T09:03:15.903Z,2.1
2018-07-03T09:03:32.451Z,1.5
2018-07-03T09:03:48.934Z,2.1
2018-07-03T09:04:05.487Z,2.3
2018-07-03T09:04:22.012Z,2.2
2018-07-03T09:04:38.473Z,2.1
2018-07-03T09:04:54.990Z,2.6
2018-07-03T09:05:11.468Z,3.3
2018-07-03T09:05:28.224Z,2.7
2018-07-03T09:05:44.916Z,1.5
2018-07-03T09:06:01.528Z,2
2018-07-03T09:06:18.072Z,2
2018-07-03T09:06:35.559Z,1.2
2018-07-03T09:06:52.187Z,1.3
2018-07-03T09:07:08.624Z,2.2
2018-07-03T09:07:25.157Z,2.3
2018-07-03T09:07:41.695Z,1.9
2018-07-03T09:07:58.187Z,1.9
2018-07-03T09:08:14.717Z,2.3
2018-07-03T09:08:31.266Z,3
2018-07-03T09:08:47.762Z,2.8
2018-07-03T09:09:04.291Z,1.9
2018-07-03T09:09:20.905Z,2.9
2018-07-03T09:09:37.391Z,3.4
2018-07-03T09:09:53.931Z,3.7
2018-07-03T09:10:10.467Z,3
2018-07-03T09:10:26.997Z,1.9
2018-07-03T09:10:43.529Z,2.3
2018-07-03T09:11:00.095Z,4.8
2018-07-03T09:11:16.620Z,3.9
2018-07-03T09:11:33.192Z,2.9
2018-07-03T09:11:49.656Z,3.3
2018-07-03T09:12:06.170Z,1.9
2018-07-03T09:12:22.682Z,2.7
2018-07-03T09:12:47.243Z,3.5
2018-07-03T09:13:03.731Z,3.1
2018-07-03T09:13:20.215Z,2.3
2018-07-03T09:13:36.712Z,1.7
2018-07-03T09:13:53.224Z,3.1
2018-07-03T09:14:09.788Z,3.6
2018-07-03T09:14:26.323Z,3.1
2018-07-03T09:14:42.836Z,2.2
2018-07-03T09:14:59.345Z,2.5
2018-07-03T09:15:15.835Z,2.7
2018-07-03T09:15:32.394Z,3.6
2018-07-03T09:15:48.937Z,7.3
2018-07-03T09:16:05.483Z,6.5
2018-07-03T09:16:21.948Z,3.4
2018-07-03T09:16:38.528Z,3.5
2018-07-03T09:16:55.112Z,2.7
2018-07-03T09:17:11.649Z,2.6
2018-07-03T09:17:29.096Z,2.5
2018-07-03T09:17:45.727Z,3.2
2018-07-03T09:18:02.370Z,3.7
2018-07-03T09:18:18.938Z,2.7
2018-07-03T09:18:35.485Z,2.4
2018-07-03T09:18:52.223Z,2.6
2018-07-03T09:19:08.803Z,2.7
2018-07-03T09:19:26.297Z,2.8
2018-07-03T09:19:42.820Z,3.1
2018-07-03T09:19:59.283Z,2.6
2018-07-03T09:20:15.775Z,4.2
2018-07-03T09:20:32.348Z,4.3
2018-07-03T09:20:48.919Z,4.2
2018-07-03T09:21:05.544Z,4.6
2018-07-03T09:21:22.082Z,3.7
2018-07-03T09:21:38.745Z,2.9
2018-07-03T09:22:03.082Z,3.7
2018-07-03T09:22:19.610Z,3.6
2018-07-03T09:22:36.178Z,2.3
2018-07-03T09:22:52.623Z,4.1
2018-07-03T09:23:09.169Z,3.8
2018-07-03T09:23:25.634Z,2.3
2018-07-03T09:23:42.300Z,1.8
2018-07-03T09:23:58.752Z,3
2018-07-03T09:24:15.279Z,3.6
2018-07-03T09:24:31.832Z,3.3
2018-07-03T09:24:48.345Z,2.4
2018-07-03T09:25:04.834Z,2.7
2018-07-03T09:25:29.430Z,3.9
2018-07-03T09:25:45.940Z,3.5
2018-07-03T09:26:02.546Z,3.4
2018-07-03T09:26:19.067Z,4.5
2018-07-03T09:26:36.500Z,2.6
2018-07-03T09:26:53.036Z,2
2018-07-03T09:27:09.621Z,2.5
2018-07-03T09:27:26.126Z,2.6
2018-07-03T09:27:50.718Z,2.6
2018-07-03T09:28:07.205Z,3.3
2018-07-03T09:28:23.780Z,2
2018-07-03T09:28:40.313Z,2.1
2018-07-03T09:28:56.875Z,2.2
2018-07-03T09:29:13.420Z,2.9
2018-07-03T09:29:30.008Z,3
2018-07-03T09:29:48.463Z,2.9
2018-07-03T09:30:05.167Z,3.3
2018-07-03T09:30:21.725Z,2.4
2018-07-03T09:30:38.299Z,1.9
2018-07-03T09:30:54.728Z,2.7
2018-07-03T09:31:11.246Z,3.1
2018-07-03T09:31:27.737Z,3.2
2018-07-03T09:31:44.218Z,3.6
2018-07-03T09:32:00.768Z,2.9
2018-07-03T09:32:17.299Z,2.8
2018-07-03T09:32:34.171Z,2.5
2018-07-03T09:32:51.364Z,2.7
2018-07-03T09:33:07.904Z,3.8
2018-07-03T09:33:24.436Z,3.9
2018-07-03T09:33:40.946Z,4.9
2018-07-03T09:33:59.407Z,3.5
2018-07-03T09:34:15.945Z,2.8
2018-07-03T09:34:33.414Z,2.4
2018-07-03T09:34:49.933Z,1.7
2018-07-03T09:35:06.468Z,1.7
2018-07-03T09:35:22.950Z,2.4
2018-07-03T09:35:39.468Z,2.5
2018-07-03T09:35:55.943Z,2.7
2018-07-03T09:36:12.623Z,2.6
2018-07-03T09:36:29.143Z,3.5
2018-07-03T09:36:45.818Z,4.4
2018-07-03T09:37:02.385Z,4.1
2018-07-03T09:37:18.969Z,3.2
2018-07-03T09:37:35.880Z,2.2
2018-07-03T09:37:52.314Z,2.2
2018-07-03T09:38:08.834Z,2.6
2018-07-03T09:38:33.328Z,2.8
2018-07-03T09:38:49.821Z,2.5
2018-07-03T09:39:06.342Z,2.4
2018-07-03T09:39:22.767Z,2.8
2018-07-03T09:39:39.482Z,3.2
2018-07-03T09:39:56.025Z,2.8
2018-07-03T09:40:12.646Z,2.8
2018-07-03T09:40:29.143Z,3.7
2018-07-03T09:40:45.709Z,4.1
2018-07-03T09:41:02.175Z,4.7
2018-07-03T09:41:18.710Z,4.8
2018-07-03T09:41:35.228Z,3
2018-07-03T09:41:51.737Z,3
2018-07-03T09:42:08.216Z,2.7
2018-07-03T09:42:24.748Z,1.8
2018-07-03T09:42:41.221Z,2.4
2018-07-03T09:42:58.740Z,3.3
2018-07-03T09:43:15.242Z,2.9
2018-07-03T09:43:31.887Z,3
2018-07-03T09:43:48.561Z,2.1
2018-07-03T09:44:05.230Z,2.2
2018-07-03T09:44:21.866Z,2.4
2018-07-03T09:44:38.397Z,2.7
2018-07-03T09:44:55.011Z,3.2
2018-07-03T09:45:11.621Z,2.4
2018-07-03T09:45:28.228Z,2
2018-07-03T09:45:44.942Z,3
2018-07-03T09:46:01.567Z,4.1
2018-07-03T09:46:18.168Z,2.8
2018-07-03T09:46:34.701Z,1.5
2018-07-03T09:46:51.172Z,1.6
2018-07-03T09:47:07.671Z,2.1
2018-07-03T09:47:24.172Z,2.7
2018-07-03T09:47:40.679Z,2.4
2018-07-03T09:47:57.151Z,2.5
2018-07-03T09:48:13.635Z,2.2
2018-07-03T09:48:30.108Z,2.8
2018-07-03T09:48:46.691Z,3
2018-07-03T09:49:03.249Z,1.9
2018-07-03T09:49:19.954Z,1.6
2018-07-03T09:49:36.544Z,2.8
2018-07-03T09:49:53.157Z,3
2018-07-03T09:50:09.790Z,2.1
2018-07-03T09:50:26.328Z,1.6
2018-07-03T09:50:42.974Z,2.2
2018-07-03T09:50:59.557Z,4
2018-07-03T09:51:16.084Z,2.7
2018-07-03T09:51:32.575Z,3
2018-07-03T09:51:49.163Z,2.1
2018-07-03T09:52:05.797Z,2.9
2018-07-03T09:52:23.080Z,2.8
2018-07-03T09:52:39.859Z,2.3
2018-07-03T09:52:56.357Z,2.8
2018-07-03T09:53:12.915Z,2.1
2018-07-03T09:53:29.759Z,2.7
2018-07-03T09:53:46.286Z,3.8
2018-07-03T09:54:02.883Z,2.5
2018-07-03T09:54:19.389Z,2.2
2018-07-03T09:54:35.898Z,2.5
2018-07-03T09:55:01.616Z,3.3
2018-07-03T09:55:27.055Z,3.2
2018-07-03T09:55:43.571Z,3.1
2018-07-03T09:56:00.113Z,2.3
2018-07-03T09:56:16.930Z,2.1
2018-07-03T09:56:33.396Z,3.4
2018-07-03T09:56:49.887Z,3.6
2018-07-03T09:57:06.664Z,2.5
2018-07-03T09:57:23.217Z,2.7
2018-07-03T09:57:39.753Z,2.7
2018-07-03T09:57:56.235Z,2.9
2018-07-03T09:58:12.740Z,3.7
2018-07-03T09:58:29.243Z,5
2018-07-03T09:58:53.667Z,3.3
2018-07-03T09:59:10.343Z,2.4
2018-07-03T09:59:27.142Z,2.8
2018-07-03T09:59:43.642Z,2.5
2018-07-03T10:00:00.150Z,2.3
2018-07-03T10:00:16.800Z,1.9
2018-07-03T10:00:33.359Z,2.2
2018-07-03T10:00:50.032Z,2.1
2018-07-03T10:01:06.519Z,3
2018-07-03T10:01:23.040Z,3.4
2018-07-03T10:01:39.545Z,3.5
2018-07-03T10:01:56.064Z,2.8
2018-07-03T10:02:12.669Z,3.7
2018-07-03T10:02:29.179Z,4.4
2018-07-03T10:02:45.703Z,3.4
2018-07-03T10:03:02.227Z,2.8
2018-07-03T10:03:18.745Z,1.7
2018-07-03T10:03:35.251Z,2.1
2018-07-03T10:03:51.768Z,2
2018-07-03T10:04:08.267Z,2.2
2018-07-03T10:04:24.810Z,2.4
2018-07-03T10:04:41.289Z,2
2018-07-03T10:04:57.852Z,2.1
2018-07-03T10:05:14.313Z,3.1
2018-07-03T10:05:30.812Z,3.5
2018-07-03T10:05:47.306Z,4.4
2018-07-03T10:06:03.826Z,3.1
2018-07-03T10:06:20.328Z,2.5
2018-07-03T10:06:36.832Z,2.1
2018-07-03T10:06:53.338Z,2.2
2018-07-03T10:07:09.820Z,1.8
2018-07-03T10:07:26.340Z,1.6
2018-07-03T10:07:42.973Z,2.6
2018-07-03T10:07:59.586Z,3
2018-07-03T10:08:16.320Z,2.9
2018-07-03T10:08:32.849Z,2.8
2018-07-03T10:08:49.348Z,3
2018-07-03T10:09:05.841Z,2.6
2018-07-03T10:09:22.331Z,2.8
2018-07-03T10:09:38.843Z,3.3
2018-07-03T10:09:55.305Z,1.9
2018-07-03T10:10:11.794Z,1.7
2018-07-03T10:10:28.303Z,2.5
2018-07-03T10:10:44.763Z,3.6
2018-07-03T10:11:01.357Z,6.7
2018-07-03T10:11:25.958Z,5.5
2018-07-03T10:11:42.445Z,3.3
2018-07-03T10:11:58.999Z,2.6
2018-07-03T10:12:15.438Z,2.5
2018-07-03T10:12:32.088Z,3.2
2018-07-03T10:12:49.634Z,3.6
2018-07-03T10:13:06.204Z,3.6
2018-07-03T10:13:22.606Z,3.7
2018-07-03T10:13:39.223Z,2.2
2018-07-03T10:13:56.848Z,1.7
2018-07-03T10:14:13.516Z,2.1
2018-07-03T10:14:30.125Z,2
2018-07-03T10:14:46.757Z,3.3
2018-07-03T10:15:03.242Z,3.8
2018-07-03T10:15:19.776Z,3.9
2018-07-03T10:15:36.470Z,3.5
2018-07-03T10:15:52.981Z,3.1
2018-07-03T10:16:09.464Z,2.7
2018-07-03T10:16:25.989Z,2.2
2018-07-03T10:16:42.560Z,2.1
2018-07-03T10:16:59.029Z,2.4
2018-07-03T10:17:15.594Z,3.1
2018-07-03T10:17:32.096Z,2.5
2018-07-03T10:17:48.679Z,2.7
2018-07-03T10:18:05.224Z,2.6
2018-07-03T10:18:21.665Z,2.5
2018-07-03T10:18:38.251Z,3
2018-07-03T10:18:54.958Z,2.9
2018-07-03T10:19:11.447Z,3.7
2018-07-03T10:19:28.032Z,4.4
2018-07-03T10:19:44.613Z,3.3
2018-07-03T10:20:01.240Z,1.7
2018-07-03T10:20:17.799Z,2.4
2018-07-03T10:20:34.308Z,1.6
2018-07-03T10:20:50.810Z,1.3
2018-07-03T10:21:07.397Z,2.2
2018-07-03T10:21:23.910Z,2.6
2018-07-03T10:21:40.356Z,2.9
2018-07-03T10:21:56.992Z,2.8
2018-07-03T10:22:13.689Z,2.3
2018-07-03T10:22:30.280Z,2.1
2018-07-03T10:22:46.850Z,3.1
2018-07-03T10:23:03.315Z,3.4
2018-07-03T10:23:19.924Z,3.8
2018-07-03T10:23:36.412Z,3.2
2018-07-03T10:23:52.954Z,2.5
2018-07-03T10:24:09.429Z,3.1
2018-07-03T10:24:25.952Z,2.8
2018-07-03T10:24:42.587Z,2
2018-07-03T10:24:59.110Z,2.9
2018-07-03T10:25:15.655Z,4.1
2018-07-03T10:25:32.339Z,2.8
2018-07-03T10:25:49.133Z,2.5
2018-07-03T10:26:06.440Z,2.6
2018-07-03T10:26:22.941Z,2.7
2018-07-03T10:26:39.491Z,2.2
2018-07-03T10:26:55.997Z,2.2
2018-07-03T10:27:12.501Z,1.7
2018-07-03T10:27:29.073Z,2.9
2018-07-03T10:27:53.506Z,3.5
2018-07-03T10:28:10.158Z,2.9
2018-07-03T10:28:26.722Z,2.8
2018-07-03T10:28:43.233Z,2.1
2018-07-03T10:28:59.715Z,2.8
2018-07-03T10:29:16.232Z,2.5
2018-07-03T10:29:32.743Z,2
2018-07-03T10:29:49.235Z,4.7
2018-07-03T10:30:05.736Z,5.2
2018-07-03T10:30:22.212Z,2.5
2018-07-03T10:30:38.772Z,1.8
2018-07-03T10:31:04.405Z,1.7
2018-07-03T10:31:21.012Z,2.6
2018-07-03T10:31:37.459Z,2.2
2018-07-03T10:31:54.065Z,2
2018-07-03T10:32:10.644Z,2.1
2018-07-03T10:32:27.209Z,2.5
2018-07-03T10:32:43.681Z,2.8
2018-07-03T10:33:00.237Z,2.3
2018-07-03T10:33:16.775Z,2.3
2018-07-03T10:33:33.322Z,2.1
2018-07-03T10:33:49.814Z,2.6
2018-07-03T10:34:06.291Z,3.1
2018-07-03T10:34:23.796Z,2.1
2018-07-03T10:34:40.284Z,2.7
2018-07-03T10:34:56.840Z,4.2
2018-07-03T10:35:13.411Z,4.8
2018-07-03T10:35:29.900Z,3.8
2018-07-03T10:35:46.374Z,3.1
2018-07-03T10:36:02.899Z,3
2018-07-03T10:36:19.432Z,2
2018-07-03T10:36:35.914Z,3.6
2018-07-03T10:36:53.479Z,3.7
2018-07-03T10:37:09.929Z,3.3
2018-07-03T10:37:34.435Z,2.2
2018-07-03T10:37:51.262Z,2.8
2018-07-03T10:38:08.041Z,2.7
2018-07-03T10:38:24.498Z,3
2018-07-03T10:38:41.032Z,3.1
2018-07-03T10:38:57.527Z,2.8
2018-07-03T10:39:14.024Z,2.6
2018-07-03T10:39:30.504Z,3.3
2018-07-03T10:39:47.062Z,4.2
2018-07-03T10:40:03.536Z,2.8
2018-07-03T10:40:20.059Z,2.1
2018-07-03T10:40:36.678Z,2.3
2018-07-03T10:40:53.498Z,2.4
2018-07-03T10:41:10.405Z,2.6
2018-07-03T10:41:26.967Z,2
2018-07-03T10:41:43.468Z,2.3
2018-07-03T10:42:00.015Z,2
2018-07-03T10:42:16.506Z,1.8
2018-07-03T10:42:32.993Z,1.2
2018-07-03T10:42:50.271Z,2.3
2018-07-03T10:43:06.786Z,3.1
2018-07-03T10:43:23.258Z,1.2
2018-07-03T10:43:39.748Z,2
2018-07-03T10:43:56.197Z,2.7
2018-07-03T10:44:20.760Z,2.3
2018-07-03T10:44:37.398Z,1.8
2018-07-03T10:44:54.051Z,3.4
2018-07-03T10:45:10.800Z,2.5
2018-07-03T10:45:27.483Z,2.7
2018-07-03T10:45:43.918Z,3.1
2018-07-03T10:46:00.858Z,2.5
2018-07-03T10:46:17.534Z,3.3
2018-07-03T10:46:34.143Z,3.4
2018-07-03T10:46:50.678Z,2.2
2018-07-03T10:47:07.107Z,2.3
2018-07-03T10:47:23.614Z,2.6
2018-07-03T10:47:40.396Z,3.4
2018-07-03T10:47:57.106Z,3.5
2018-07-03T10:48:22.868Z,3.4
2018-07-03T10:48:39.358Z,2.5
2018-07-03T10:48:55.876Z,2.8
2018-07-03T10:49:12.346Z,3.3
2018-07-03T10:49:28.842Z,2.4
2018-07-03T10:49:45.308Z,2.5
2018-07-03T10:50:01.812Z,2.9
2018-07-03T10:50:18.307Z,2.7
2018-07-03T10:50:34.923Z,3.1
2018-07-03T10:50:51.628Z,3.7
2018-07-03T10:51:08.385Z,3.2
2018-07-03T10:51:26.108Z,2